Terminal Aerodrome Forecast
Issued by NWS Wilmington, OH

Current Version | Previous Version | Graphics & Text | Print | Product List | Glossary On
Versions: 1 2 3 4 5 6 7 8 9 10 11 12 13 14 15 16 17 18 19 20 21 22 23 24 25 26 27
000
FTUS41 KILN 230540
TAFCVG
TAF
KCVG 230540Z 2306/2412 12007KT 2SM -DZ OVC003
     FM230900 12007KT 2SM SHRA OVC008
     FM231300 22010KT 4SM BR VCSH OVC006
      TEMPO 2319/2321 2SM -SHRA OVC009
     FM232200 27008KT 5SM BR OVC015
     FM240300 35003KT 3SM BR OVC008
     FM240800 03007KT 3SM -SHRA OVC006=

USA.gov is the U.S. government's official web portal to all federal, state and local government web resources and services.